sensor_id;sensor_type;location;lat;lon;timestamp;temperature;humidity
29813;DHT22;16707;48.106;11.548;2023-02-15T00:01:07;1.00;99.90
29813;DHT22;16707;48.106;11.548;2023-02-15T00:03:34;1.10;99.90
29813;DHT22;16707;48.106;11.548;2023-02-15T00:06:02;1.20;99.90
29813;DHT22;16707;48.106;11.548;2023-02-15T00:08:29;1.10;99.90
29813;DHT22;16707;48.106;11.548;2023-02-15T00:11:04;0.90;99.90
29813;DHT22;16707;48.106;11.548;2023-02-15T00:13:31;0.80;99.90
29813;DHT22;16707;48.106;11.548;2023-02-15T00:16:01;0.70;99.90
29813;DHT22;16707;48.106;11.548;2023-02-15T00:18:30;0.70;99.90
29813;DHT22;16707;48.106;11.548;2023-02-15T00:20:57;0.80;99.90
29813;DHT22;16707;48.106;11.548;2023-02-15T00:23:24;0.90;99.90
29813;DHT22;16707;48.106;11.548;2023-02-15T00:25:52;0.90;99.90
29813;DHT22;16707;48.106;11.548;2023-02-15T00:28:29;1.00;99.90
29813;DHT22;16707;48.106;11.548;2023-02-15T00:31:02;1.10;99.90
29813;DHT22;16707;48.106;11.548;2023-02-15T00:33:31;1.00;99.90
29813;DHT22;16707;48.106;11.548;2023-02-15T00:35:59;0.80;99.90
29813;DHT22;16707;48.106;11.548;2023-02-15T00:38:26;0.70;99.90
29813;DHT22;16707;48.106;11.548;2023-02-15T00:40:54;0.70;99.90
29813;DHT22;16707;48.106;11.548;2023-02-15T00:43:20;0.80;99.90
29813;DHT22;16707;48.106;11.548;2023-02-15T00:45:48;0.70;99.90
29813;DHT22;16707;48.106;11.548;2023-02-15T00:48:15;0.80;99.90
29813;DHT22;16707;48.106;11.548;2023-02-15T00:50:44;0.80;99.90
29813;DHT22;16707;48.106;11.548;2023-02-15T00:53:12;0.70;99.90
29813;DHT22;16707;48.106;11.548;2023-02-15T00:55:39;0.90;99.90
29813;DHT22;16707;48.106;11.548;2023-02-15T00:58:06;0.90;99.90
29813;DHT22;16707;48.106;11.548;2023-02-15T01:00:33;0.90;99.90
29813;DHT22;16707;48.106;11.548;2023-02-15T01:03:00;0.90;99.90
29813;DHT22;16707;48.106;11.548;2023-02-15T01:05:27;0.90;99.90
29813;DHT22;16707;48.106;11.548;2023-02-15T01:07:56;0.80;99.90
29813;DHT22;16707;48.106;11.548;2023-02-15T01:10:23;0.50;99.90
29813;DHT22;16707;48.106;11.548;2023-02-15T01:12:51;0.50;99.90
29813;DHT22;16707;48.106;11.548;2023-02-15T01:15:18;0.60;99.90
29813;DHT22;16707;48.106;11.548;2023-02-15T01:17:46;0.70;99.90
29813;DHT22;16707;48.106;11.548;2023-02-15T01:20:18;0.70;99.90
29813;DHT22;16707;48.106;11.548;2023-02-15T01:22:46;0.60;99.90
29813;DHT22;16707;48.106;11.548;2023-02-15T01:25:17;0.50;99.90
29813;DHT22;16707;48.106;11.548;2023-02-15T01:27:44;0.50;99.90
29813;DHT22;16707;48.106;11.548;2023-02-15T01:30:12;0.50;99.90
29813;DHT22;16707;48.106;11.548;2023-02-15T01:32:40;0.50;99.90
29813;DHT22;16707;48.106;11.548;2023-02-15T01:35:07;0.40;99.90
29813;DHT22;16707;48.106;11.548;2023-02-15T01:37:35;0.30;99.90
29813;DHT22;16707;48.106;11.548;2023-02-15T01:40:03;0.20;99.90
29813;DHT22;16707;48.106;11.548;2023-02-15T01:42:32;0.20;99.90
29813;DHT22;16707;48.106;11.548;2023-02-15T01:45:00;0.20;99.90
29813;DHT22;16707;48.106;11.548;2023-02-15T01:47:34;0.30;99.90
29813;DHT22;16707;48.106;11.548;2023-02-15T01:50:09;0.20;99.90
29813;DHT22;16707;48.106;11.548;2023-02-15T01:52:46;0.00;99.90
29813;DHT22;16707;48.106;11.548;2023-02-15T01:55:16;-0.10;99.90
29813;DHT22;16707;48.106;11.548;2023-02-15T01:57:45;-0.10;99.90
29813;DHT22;16707;48.106;11.548;2023-02-15T02:00:14;-0.30;99.90
29813;DHT22;16707;48.106;11.548;2023-02-15T02:02:44;-0.30;99.90
29813;DHT22;16707;48.106;11.548;2023-02-15T02:05:12;-0.30;99.90
29813;DHT22;16707;48.106;11.548;2023-02-15T02:07:40;-0.30;99.90
29813;DHT22;16707;48.106;11.548;2023-02-15T02:10:09;-0.20;99.90
29813;DHT22;16707;48.106;11.548;2023-02-15T02:12:37;-0.20;99.90
29813;DHT22;16707;48.106;11.548;2023-02-15T02:15:07;-0.20;99.90
29813;DHT22;16707;48.106;11.548;2023-02-15T02:17:42;-0.30;99.90
29813;DHT22;16707;48.106;11.548;2023-02-15T02:20:27;-0.30;99.90
29813;DHT22;16707;48.106;11.548;2023-02-15T02:23:22;-0.40;99.90
29813;DHT22;16707;48.106;11.548;2023-02-15T02:35:04;-0.50;99.90
29813;DHT22;16707;48.106;11.548;2023-02-15T02:37:46;-0.60;99.90
29813;DHT22;16707;48.106;11.548;2023-02-15T02:40:20;-0.70;99.90
29813;DHT22;16707;48.106;11.548;2023-02-15T02:42:58;-0.70;99.90
29813;DHT22;16707;48.106;11.548;2023-02-15T02:45:31;-0.70;99.90
29813;DHT22;16707;48.106;11.548;2023-02-15T02:48:02;-0.80;99.90
29813;DHT22;16707;48.106;11.548;2023-02-15T02:50:31;-0.90;99.90
29813;DHT22;16707;48.106;11.548;2023-02-15T02:52:59;-1.00;99.90
29813;DHT22;16707;48.106;11.548;2023-02-15T02:55:30;-1.00;99.90
29813;DHT22;16707;48.106;11.548;2023-02-15T02:58:00;-0.90;99.90
29813;DHT22;16707;48.106;11.548;2023-02-15T03:00:31;-0.90;99.90
29813;DHT22;16707;48.106;11.548;2023-02-15T03:03:02;-1.00;99.90
29813;DHT22;16707;48.106;11.548;2023-02-15T03:05:34;-1.00;99.90
29813;DHT22;16707;48.106;11.548;2023-02-15T03:08:07;-1.00;99.90
29813;DHT22;16707;48.106;11.548;2023-02-15T03:10:37;-0.70;99.90
29813;DHT22;16707;48.106;11.548;2023-02-15T03:13:05;-0.80;99.90
29813;DHT22;16707;48.106;11.548;2023-02-15T03:15:34;-0.80;99.90
29813;DHT22;16707;48.106;11.548;2023-02-15T03:18:18;-0.60;99.90
29813;DHT22;16707;48.106;11.548;2023-02-15T03:20:49;-0.50;99.90
29813;DHT22;16707;48.106;11.548;2023-02-15T03:23:20;-0.70;99.90
29813;DHT22;16707;48.106;11.548;2023-02-15T03:25:51;-0.80;99.90
29813;DHT22;16707;48.106;11.548;2023-02-15T03:28:22;-0.60;99.90
29813;DHT22;16707;48.106;11.548;2023-02-15T03:30:53;-0.60;99.90
29813;DHT22;16707;48.106;11.548;2023-02-15T03:33:23;-0.60;99.90
29813;DHT22;16707;48.106;11.548;2023-02-15T03:35:56;-0.50;99.90
29813;DHT22;16707;48.106;11.548;2023-02-15T03:38:33;-0.50;99.90
29813;DHT22;16707;48.106;11.548;2023-02-15T03:41:06;-0.60;99.90
29813;DHT22;16707;48.106;11.548;2023-02-15T03:43:44;-0.60;99.90
29813;DHT22;16707;48.106;11.548;2023-02-15T03:46:17;-0.70;99.90
29813;DHT22;16707;48.106;11.548;2023-02-15T03:48:48;-0.70;99.90
29813;DHT22;16707;48.106;11.548;2023-02-15T03:51:21;-0.60;99.90
29813;DHT22;16707;48.106;11.548;2023-02-15T03:54:03;-0.80;99.90
29813;DHT22;16707;48.106;11.548;2023-02-15T03:56:31;-0.70;99.90
29813;DHT22;16707;48.106;11.548;2023-02-15T03:58:59;-0.60;99.90
29813;DHT22;16707;48.106;11.548;2023-02-15T04:01:50;-0.50;99.90
29813;DHT22;16707;48.106;11.548;2023-02-15T04:04:28;-0.50;99.90
29813;DHT22;16707;48.106;11.548;2023-02-15T04:06:59;-0.50;99.90
29813;DHT22;16707;48.106;11.548;2023-02-15T04:09:26;-0.70;99.90
29813;DHT22;16707;48.106;11.548;2023-02-15T04:12:11;-0.70;99.90
29813;DHT22;16707;48.106;11.548;2023-02-15T04:14:38;-0.80;99.90
29813;DHT22;16707;48.106;11.548;2023-02-15T04:17:22;-0.80;99.90
29813;DHT22;16707;48.106;11.548;2023-02-15T04:19:49;-0.80;99.90
29813;DHT22;16707;48.106;11.548;2023-02-15T04:22:34;-0.70;99.90
29813;DHT22;16707;48.106;11.548;2023-02-15T04:25:18;-0.70;99.90
29813;DHT22;16707;48.106;11.548;2023-02-15T04:27:48;-0.70;99.90
29813;DHT22;16707;48.106;11.548;2023-02-15T04:30:17;-0.60;99.90
29813;DHT22;16707;48.106;11.548;2023-02-15T04:32:44;-0.60;99.90
29813;DHT22;16707;48.106;11.548;2023-02-15T04:35:12;-0.50;99.90
29813;DHT22;16707;48.106;11.548;2023-02-15T04:37:41;-0.50;99.90
29813;DHT22;16707;48.106;11.548;2023-02-15T04:40:11;-0.50;99.90
29813;DHT22;16707;48.106;11.548;2023-02-15T04:42:39;-0.40;99.90
29813;DHT22;16707;48.106;11.548;2023-02-15T04:45:06;-0.40;99.90
29813;DHT22;16707;48.106;11.548;2023-02-15T04:47:34;-0.40;99.90
29813;DHT22;16707;48.106;11.548;2023-02-15T04:50:01;-0.40;99.90
29813;DHT22;16707;48.106;11.548;2023-02-15T04:52:28;-0.40;99.90
29813;DHT22;16707;48.106;11.548;2023-02-15T04:54:56;-0.30;99.90
29813;DHT22;16707;48.106;11.548;2023-02-15T04:57:23;-0.20;99.90
29813;DHT22;16707;48.106;11.548;2023-02-15T04:59:50;-0.20;99.90
29813;DHT22;16707;48.106;11.548;2023-02-15T05:02:17;-0.20;99.90
29813;DHT22;16707;48.106;11.548;2023-02-15T05:04:44;-0.10;99.90
29813;DHT22;16707;48.106;11.548;2023-02-15T05:07:11;-0.10;99.90
29813;DHT22;16707;48.106;11.548;2023-02-15T05:09:38;0.00;99.90
29813;DHT22;16707;48.106;11.548;2023-02-15T05:12:06;0.00;99.90
29813;DHT22;16707;48.106;11.548;2023-02-15T05:14:33;0.20;99.90
29813;DHT22;16707;48.106;11.548;2023-02-15T05:17:00;0.10;99.90
29813;DHT22;16707;48.106;11.548;2023-02-15T05:19:29;0.10;99.90
29813;DHT22;16707;48.106;11.548;2023-02-15T05:21:56;0.10;99.90
29813;DHT22;16707;48.106;11.548;2023-02-15T05:24:23;-0.10;99.90
29813;DHT22;16707;48.106;11.548;2023-02-15T05:27:09;-0.20;99.90
29813;DHT22;16707;48.106;11.548;2023-02-15T05:29:54;-0.30;99.90
29813;DHT22;16707;48.106;11.548;2023-02-15T05:32:21;-0.20;99.90
29813;DHT22;16707;48.106;11.548;2023-02-15T05:34:48;-0.30;99.90
29813;DHT22;16707;48.106;11.548;2023-02-15T05:37:15;-0.30;99.90
29813;DHT22;16707;48.106;11.548;2023-02-15T05:39:42;-0.40;99.90
29813;DHT22;16707;48.106;11.548;2023-02-15T05:42:10;-0.40;99.90
29813;DHT22;16707;48.106;11.548;2023-02-15T05:44:37;-0.40;99.90
29813;DHT22;16707;48.106;11.548;2023-02-15T05:47:04;-0.40;99.90
29813;DHT22;16707;48.106;11.548;2023-02-15T05:49:33;-0.30;99.90
29813;DHT22;16707;48.106;11.548;2023-02-15T05:51:59;0.00;99.90
29813;DHT22;16707;48.106;11.548;2023-02-15T05:54:27;0.10;99.90
29813;DHT22;16707;48.106;11.548;2023-02-15T05:56:54;-0.10;99.90
29813;DHT22;16707;48.106;11.548;2023-02-15T05:59:23;-0.10;99.90
29813;DHT22;16707;48.106;11.548;2023-02-15T06:01:50;-0.10;99.90
29813;DHT22;16707;48.106;11.548;2023-02-15T06:04:17;-0.20;99.90
29813;DHT22;16707;48.106;11.548;2023-02-15T06:06:44;-0.30;99.90
29813;DHT22;16707;48.106;11.548;2023-02-15T06:09:12;-0.30;99.90
29813;DHT22;16707;48.106;11.548;2023-02-15T06:11:39;-0.40;99.90
29813;DHT22;16707;48.106;11.548;2023-02-15T06:14:06;-0.40;99.90
29813;DHT22;16707;48.106;11.548;2023-02-15T06:16:35;-0.30;99.90
29813;DHT22;16707;48.106;11.548;2023-02-15T06:19:02;-0.40;99.90
29813;DHT22;16707;48.106;11.548;2023-02-15T06:21:29;-0.40;99.90
29813;DHT22;16707;48.106;11.548;2023-02-15T06:23:56;-0.40;99.90
29813;DHT22;16707;48.106;11.548;2023-02-15T06:26:24;-0.30;99.90
29813;DHT22;16707;48.106;11.548;2023-02-15T06:28:51;-0.40;99.90
29813;DHT22;16707;48.106;11.548;2023-02-15T06:31:17;-0.40;99.90
29813;DHT22;16707;48.106;11.548;2023-02-15T06:33:46;-0.20;99.90
29813;DHT22;16707;48.106;11.548;2023-02-15T06:36:12;-0.10;99.90
29813;DHT22;16707;48.106;11.548;2023-02-15T06:38:39;-0.10;99.90
29813;DHT22;16707;48.106;11.548;2023-02-15T06:41:06;-0.10;99.90
29813;DHT22;16707;48.106;11.548;2023-02-15T06:43:33;-0.20;99.90
29813;DHT22;16707;48.106;11.548;2023-02-15T06:46:00;-0.30;99.90
29813;DHT22;16707;48.106;11.548;2023-02-15T06:48:27;-0.30;99.90
29813;DHT22;16707;48.106;11.548;2023-02-15T06:50:55;0.00;99.90
29813;DHT22;16707;48.106;11.548;2023-02-15T06:53:22;0.00;99.90
29813;DHT22;16707;48.106;11.548;2023-02-15T06:55:49;0.10;99.90
29813;DHT22;16707;48.106;11.548;2023-02-15T06:58:16;0.10;99.90
29813;DHT22;16707;48.106;11.548;2023-02-15T07:00:43;0.00;99.90
29813;DHT22;16707;48.106;11.548;2023-02-15T07:03:13;0.10;99.90
29813;DHT22;16707;48.106;11.548;2023-02-15T07:05:40;0.30;99.90
29813;DHT22;16707;48.106;11.548;2023-02-15T07:08:08;0.30;99.90
29813;DHT22;16707;48.106;11.548;2023-02-15T07:10:35;0.40;99.90
29813;DHT22;16707;48.106;11.548;2023-02-15T07:13:02;0.40;99.90
29813;DHT22;16707;48.106;11.548;2023-02-15T07:15:28;0.50;99.90
29813;DHT22;16707;48.106;11.548;2023-02-15T07:17:56;0.50;99.90
29813;DHT22;16707;48.106;11.548;2023-02-15T07:20:23;0.60;99.90
29813;DHT22;16707;48.106;11.548;2023-02-15T07:22:50;0.70;99.90
29813;DHT22;16707;48.106;11.548;2023-02-15T07:25:19;0.70;99.90
29813;DHT22;16707;48.106;11.548;2023-02-15T07:27:46;0.80;99.90
29813;DHT22;16707;48.106;11.548;2023-02-15T07:30:15;0.80;99.90
29813;DHT22;16707;48.106;11.548;2023-02-15T07:32:42;0.80;99.90
29813;DHT22;16707;48.106;11.548;2023-02-15T07:35:23;0.70;99.90
29813;DHT22;16707;48.106;11.548;2023-02-15T07:37:50;0.70;99.90
29813;DHT22;16707;48.106;11.548;2023-02-15T07:40:20;0.60;99.90
29813;DHT22;16707;48.106;11.548;2023-02-15T07:42:49;0.70;99.90
29813;DHT22;16707;48.106;11.548;2023-02-15T07:45:18;0.70;99.90
29813;DHT22;16707;48.106;11.548;2023-02-15T07:47:45;0.90;99.90
29813;DHT22;16707;48.106;11.548;2023-02-15T07:50:12;0.80;99.90
29813;DHT22;16707;48.106;11.548;2023-02-15T07:52:39;0.60;99.90
29813;DHT22;16707;48.106;11.548;2023-02-15T07:55:06;0.60;99.90
29813;DHT22;16707;48.106;11.548;2023-02-15T07:57:35;0.80;99.90
29813;DHT22;16707;48.106;11.548;2023-02-15T08:00:03;1.00;99.90
29813;DHT22;16707;48.106;11.548;2023-02-15T08:02:30;1.10;99.90
29813;DHT22;16707;48.106;11.548;2023-02-15T08:04:57;1.30;99.90
29813;DHT22;16707;48.106;11.548;2023-02-15T08:07:24;1.40;99.90
29813;DHT22;16707;48.106;11.548;2023-02-15T08:09:51;1.50;99.90
29813;DHT22;16707;48.106;11.548;2023-02-15T08:12:19;1.80;99.90
29813;DHT22;16707;48.106;11.548;2023-02-15T08:14:47;1.70;99.90
29813;DHT22;16707;48.106;11.548;2023-02-15T08:17:14;1.60;99.90
29813;DHT22;16707;48.106;11.548;2023-02-15T08:19:41;1.40;99.90
29813;DHT22;16707;48.106;11.548;2023-02-15T08:22:12;1.30;99.90
29813;DHT22;16707;48.106;11.548;2023-02-15T08:24:40;1.40;99.90
29813;DHT22;16707;48.106;11.548;2023-02-15T08:27:09;1.60;99.90
29813;DHT22;16707;48.106;11.548;2023-02-15T08:29:37;1.60;99.90
29813;DHT22;16707;48.106;11.548;2023-02-15T08:32:07;1.70;99.90
29813;DHT22;16707;48.106;11.548;2023-02-15T08:34:37;1.60;99.90
29813;DHT22;16707;48.106;11.548;2023-02-15T08:37:04;1.90;99.90
29813;DHT22;16707;48.106;11.548;2023-02-15T08:39:31;2.00;99.90
29813;DHT22;16707;48.106;11.548;2023-02-15T08:41:58;2.10;99.90
29813;DHT22;16707;48.106;11.548;2023-02-15T08:47:03;2.60;99.90
29813;DHT22;16707;48.106;11.548;2023-02-15T08:49:31;2.70;99.90
29813;DHT22;16707;48.106;11.548;2023-02-15T08:51:58;2.60;99.90
29813;DHT22;16707;48.106;11.548;2023-02-15T08:54:25;2.50;99.90
29813;DHT22;16707;48.106;11.548;2023-02-15T08:56:52;2.40;99.90
29813;DHT22;16707;48.106;11.548;2023-02-15T08:59:20;2.30;99.90
29813;DHT22;16707;48.106;11.548;2023-02-15T09:01:48;2.60;99.90
29813;DHT22;16707;48.106;11.548;2023-02-15T09:04:16;2.50;99.90
29813;DHT22;16707;48.106;11.548;2023-02-15T09:06:46;2.40;99.90
29813;DHT22;16707;48.106;11.548;2023-02-15T09:09:13;2.60;99.90
29813;DHT22;16707;48.106;11.548;2023-02-15T09:11:41;2.90;99.90
29813;DHT22;16707;48.106;11.548;2023-02-15T09:14:10;2.90;99.90
29813;DHT22;16707;48.106;11.548;2023-02-15T09:16:39;2.90;99.90
29813;DHT22;16707;48.106;11.548;2023-02-15T09:19:07;2.60;99.90
29813;DHT22;16707;48.106;11.548;2023-02-15T09:21:36;2.50;99.90
29813;DHT22;16707;48.106;11.548;2023-02-15T09:24:06;2.50;99.90
29813;DHT22;16707;48.106;11.548;2023-02-15T09:26:36;2.30;99.90
29813;DHT22;16707;48.106;11.548;2023-02-15T09:29:03;2.20;99.90
29813;DHT22;16707;48.106;11.548;2023-02-15T09:31:32;1.90;99.90
29813;DHT22;16707;48.106;11.548;2023-02-15T09:34:00;2.20;99.90
29813;DHT22;16707;48.106;11.548;2023-02-15T09:36:30;2.40;99.90
29813;DHT22;16707;48.106;11.548;2023-02-15T09:38:59;2.60;99.90
29813;DHT22;16707;48.106;11.548;2023-02-15T09:41:54;2.50;99.90
29813;DHT22;16707;48.106;11.548;2023-02-15T09:44:47;2.60;99.90
29813;DHT22;16707;48.106;11.548;2023-02-15T09:47:31;2.60;99.90
29813;DHT22;16707;48.106;11.548;2023-02-15T09:50:05;2.80;99.90
29813;DHT22;16707;48.106;11.548;2023-02-15T09:52:45;3.10;99.90
29813;DHT22;16707;48.106;11.548;2023-02-15T09:55:24;3.10;99.90
29813;DHT22;16707;48.106;11.548;2023-02-15T09:58:04;3.20;99.90
29813;DHT22;16707;48.106;11.548;2023-02-15T10:00:40;3.30;99.90
29813;DHT22;16707;48.106;11.548;2023-02-15T10:03:23;3.20;99.90
29813;DHT22;16707;48.106;11.548;2023-02-15T10:08:58;3.60;99.90
29813;DHT22;16707;48.106;11.548;2023-02-15T10:11:38;3.60;99.90
29813;DHT22;16707;48.106;11.548;2023-02-15T10:14:40;3.50;99.90
29813;DHT22;16707;48.106;11.548;2023-02-15T10:17:23;3.60;99.90
29813;DHT22;16707;48.106;11.548;2023-02-15T10:20:02;3.80;99.90
29813;DHT22;16707;48.106;11.548;2023-02-15T10:22:38;4.00;99.90
29813;DHT22;16707;48.106;11.548;2023-02-15T10:25:20;4.30;99.90
29813;DHT22;16707;48.106;11.548;2023-02-15T10:27:49;4.30;99.90
29813;DHT22;16707;48.106;11.548;2023-02-15T10:30:23;4.40;99.90
29813;DHT22;16707;48.106;11.548;2023-02-15T10:32:59;4.60;99.90
29813;DHT22;16707;48.106;11.548;2023-02-15T10:35:33;4.70;99.90
29813;DHT22;16707;48.106;11.548;2023-02-15T10:38:22;4.70;99.90
29813;DHT22;16707;48.106;11.548;2023-02-15T10:41:05;4.90;99.90
29813;DHT22;16707;48.106;11.548;2023-02-15T10:43:49;5.10;99.90
29813;DHT22;16707;48.106;11.548;2023-02-15T10:46:35;5.40;99.90
29813;DHT22;16707;48.106;11.548;2023-02-15T10:49:23;5.60;99.30
29813;DHT22;16707;48.106;11.548;2023-02-15T10:52:10;5.60;99.40
29813;DHT22;16707;48.106;11.548;2023-02-15T10:54:45;5.60;99.20
29813;DHT22;16707;48.106;11.548;2023-02-15T10:57:19;5.70;99.00
29813;DHT22;16707;48.106;11.548;2023-02-15T11:00:02;5.90;99.10
29813;DHT22;16707;48.106;11.548;2023-02-15T11:02:54;6.10;98.00
29813;DHT22;16707;48.106;11.548;2023-02-15T11:05:36;6.30;97.70
29813;DHT22;16707;48.106;11.548;2023-02-15T11:08:07;6.50;96.40
29813;DHT22;16707;48.106;11.548;2023-02-15T11:10:37;6.50;96.60
29813;DHT22;16707;48.106;11.548;2023-02-15T11:13:09;6.60;96.00
29813;DHT22;16707;48.106;11.548;2023-02-15T11:15:39;6.60;95.60
29813;DHT22;16707;48.106;11.548;2023-02-15T11:18:14;7.00;95.40
29813;DHT22;16707;48.106;11.548;2023-02-15T11:20:46;7.30;94.30
29813;DHT22;16707;48.106;11.548;2023-02-15T11:23:16;7.70;93.30
29813;DHT22;16707;48.106;11.548;2023-02-15T11:25:46;7.80;92.40
29813;DHT22;16707;48.106;11.548;2023-02-15T11:28:19;7.80;91.70
29813;DHT22;16707;48.106;11.548;2023-02-15T11:30:51;7.90;91.80
29813;DHT22;16707;48.106;11.548;2023-02-15T11:33:25;7.90;91.10
29813;DHT22;16707;48.106;11.548;2023-02-15T11:35:57;8.10;90.60
29813;DHT22;16707;48.106;11.548;2023-02-15T11:38:29;8.10;90.70
29813;DHT22;16707;48.106;11.548;2023-02-15T11:41:00;8.30;88.40
29813;DHT22;16707;48.106;11.548;2023-02-15T11:43:32;8.30;87.00
29813;DHT22;16707;48.106;11.548;2023-02-15T11:46:01;8.40;87.20
29813;DHT22;16707;48.106;11.548;2023-02-15T11:48:30;8.60;85.90
29813;DHT22;16707;48.106;11.548;2023-02-15T11:50:58;8.80;84.40
29813;DHT22;16707;48.106;11.548;2023-02-15T11:53:28;8.90;84.20
29813;DHT22;16707;48.106;11.548;2023-02-15T11:55:58;9.00;83.70
29813;DHT22;16707;48.106;11.548;2023-02-15T11:58:30;9.00;82.40
29813;DHT22;16707;48.106;11.548;2023-02-15T12:01:04;8.90;83.50
29813;DHT22;16707;48.106;11.548;2023-02-15T12:03:45;8.90;82.30
29813;DHT22;16707;48.106;11.548;2023-02-15T12:06:20;9.10;82.40
29813;DHT22;16707;48.106;11.548;2023-02-15T12:08:54;9.30;81.00
29813;DHT22;16707;48.106;11.548;2023-02-15T12:11:27;9.30;79.30
29813;DHT22;16707;48.106;11.548;2023-02-15T12:13:56;9.50;78.90
29813;DHT22;16707;48.106;11.548;2023-02-15T12:16:25;9.70;77.60
29813;DHT22;16707;48.106;11.548;2023-02-15T12:18:56;9.80;78.00
29813;DHT22;16707;48.106;11.548;2023-02-15T12:21:28;9.90;76.90
29813;DHT22;16707;48.106;11.548;2023-02-15T12:23:58;9.80;75.90
29813;DHT22;16707;48.106;11.548;2023-02-15T12:26:28;9.80;76.20
29813;DHT22;16707;48.106;11.548;2023-02-15T12:28:57;9.90;75.80
29813;DHT22;16707;48.106;11.548;2023-02-15T12:31:31;10.20;74.90
29813;DHT22;16707;48.106;11.548;2023-02-15T12:34:01;10.30;73.80
29813;DHT22;16707;48.106;11.548;2023-02-15T12:36:31;10.30;74.00
29813;DHT22;16707;48.106;11.548;2023-02-15T12:39:17;10.20;73.60
29813;DHT22;16707;48.106;11.548;2023-02-15T12:41:46;10.30;73.80
29813;DHT22;16707;48.106;11.548;2023-02-15T12:44:24;10.20;74.00
29813;DHT22;16707;48.106;11.548;2023-02-15T12:47:00;10.00;73.70
29813;DHT22;16707;48.106;11.548;2023-02-15T12:49:29;10.20;74.70
29813;DHT22;16707;48.106;11.548;2023-02-15T12:51:58;10.40;72.70
29813;DHT22;16707;48.106;11.548;2023-02-15T12:54:37;10.40;72.90
29813;DHT22;16707;48.106;11.548;2023-02-15T12:57:28;10.40;74.50
29813;DHT22;16707;48.106;11.548;2023-02-15T12:59:57;10.40;74.00
29813;DHT22;16707;48.106;11.548;2023-02-15T13:02:28;10.10;74.30
29813;DHT22;16707;48.106;11.548;2023-02-15T13:05:05;10.00;75.80
29813;DHT22;16707;48.106;11.548;2023-02-15T13:07:33;10.10;76.40
29813;DHT22;16707;48.106;11.548;2023-02-15T13:09:59;10.20;77.10
29813;DHT22;16707;48.106;11.548;2023-02-15T13:12:28;10.20;77.50
29813;DHT22;16707;48.106;11.548;2023-02-15T13:14:58;10.10;77.50
29813;DHT22;16707;48.106;11.548;2023-02-15T13:17:29;10.10;78.10
29813;DHT22;16707;48.106;11.548;2023-02-15T13:20:02;10.10;78.70
29813;DHT22;16707;48.106;11.548;2023-02-15T13:22:36;10.10;78.20
29813;DHT22;16707;48.106;11.548;2023-02-15T13:25:11;10.00;79.60
29813;DHT22;16707;48.106;11.548;2023-02-15T13:27:40;9.90;80.60
29813;DHT22;16707;48.106;11.548;2023-02-15T13:30:22;10.00;80.40
29813;DHT22;16707;48.106;11.548;2023-02-15T13:32:53;10.00;80.20
29813;DHT22;16707;48.106;11.548;2023-02-15T13:35:23;9.90;80.30
29813;DHT22;16707;48.106;11.548;2023-02-15T13:38:02;9.90;81.20
29813;DHT22;16707;48.106;11.548;2023-02-15T13:40:36;10.00;81.20
29813;DHT22;16707;48.106;11.548;2023-02-15T13:43:17;10.00;81.00
29813;DHT22;16707;48.106;11.548;2023-02-15T13:45:57;10.00;80.80
29813;DHT22;16707;48.106;11.548;2023-02-15T13:48:34;10.10;81.60
29813;DHT22;16707;48.106;11.548;2023-02-15T13:51:13;10.20;80.50
29813;DHT22;16707;48.106;11.548;2023-02-15T13:53:53;10.30;80.70
29813;DHT22;16707;48.106;11.548;2023-02-15T13:56:31;10.30;79.70
29813;DHT22;16707;48.106;11.548;2023-02-15T14:01:55;10.30;80.30
29813;DHT22;16707;48.106;11.548;2023-02-15T14:04:36;10.30;80.70
29813;DHT22;16707;48.106;11.548;2023-02-15T14:07:30;10.40;81.20
29813;DHT22;16707;48.106;11.548;2023-02-15T14:10:11;10.30;81.60
29813;DHT22;16707;48.106;11.548;2023-02-15T14:12:51;10.30;82.50
29813;DHT22;16707;48.106;11.548;2023-02-15T14:15:33;10.10;83.60
29813;DHT22;16707;48.106;11.548;2023-02-15T14:18:12;10.00;84.50
29813;DHT22;16707;48.106;11.548;2023-02-15T14:20:47;9.90;85.40
29813;DHT22;16707;48.106;11.548;2023-02-15T14:23:29;9.90;85.60
29813;DHT22;16707;48.106;11.548;2023-02-15T14:26:09;10.00;85.70
29813;DHT22;16707;48.106;11.548;2023-02-15T14:28:43;9.80;86.70
29813;DHT22;16707;48.106;11.548;2023-02-15T14:31:11;9.60;88.30
29813;DHT22;16707;48.106;11.548;2023-02-15T14:33:39;9.60;88.40
29813;DHT22;16707;48.106;11.548;2023-02-15T14:36:16;9.50;89.00
29813;DHT22;16707;48.106;11.548;2023-02-15T14:38:54;9.60;89.00
29813;DHT22;16707;48.106;11.548;2023-02-15T14:41:27;9.50;89.90
29813;DHT22;16707;48.106;11.548;2023-02-15T14:44:00;9.40;90.30
29813;DHT22;16707;48.106;11.548;2023-02-15T14:46:34;9.30;90.60
29813;DHT22;16707;48.106;11.548;2023-02-15T14:49:09;9.30;90.90
29813;DHT22;16707;48.106;11.548;2023-02-15T14:52:02;9.40;90.90
29813;DHT22;16707;48.106;11.548;2023-02-15T14:55:00;9.30;90.90
29813;DHT22;16707;48.106;11.548;2023-02-15T14:57:31;9.20;91.10
29813;DHT22;16707;48.106;11.548;2023-02-15T15:00:00;9.20;91.30
29813;DHT22;16707;48.106;11.548;2023-02-15T15:02:43;9.20;91.40
29813;DHT22;16707;48.106;11.548;2023-02-15T15:05:17;9.20;91.50
29813;DHT22;16707;48.106;11.548;2023-02-15T15:07:46;9.20;91.40
29813;DHT22;16707;48.106;11.548;2023-02-15T15:10:38;9.10;91.60
29813;DHT22;16707;48.106;11.548;2023-02-15T15:13:35;8.90;92.30
29813;DHT22;16707;48.106;11.548;2023-02-15T15:19:05;8.60;93.20
29813;DHT22;16707;48.106;11.548;2023-02-15T15:21:55;8.60;93.60
29813;DHT22;16707;48.106;11.548;2023-02-15T15:24:51;8.40;94.10
29813;DHT22;16707;48.106;11.548;2023-02-15T15:27:48;8.30;94.50
29813;DHT22;16707;48.106;11.548;2023-02-15T15:37:18;8.10;95.10
29813;DHT22;16707;48.106;11.548;2023-02-15T15:40:47;8.10;95.40
29813;DHT22;16707;48.106;11.548;2023-02-15T15:46:50;8.00;96.00
29813;DHT22;16707;48.106;11.548;2023-02-15T15:49:21;8.00;96.00
29813;DHT22;16707;48.106;11.548;2023-02-15T15:51:50;7.80;96.20
29813;DHT22;16707;48.106;11.548;2023-02-15T15:54:23;7.70;96.70
29813;DHT22;16707;48.106;11.548;2023-02-15T15:56:56;7.60;97.00
29813;DHT22;16707;48.106;11.548;2023-02-15T15:59:25;7.50;97.20
29813;DHT22;16707;48.106;11.548;2023-02-15T16:01:59;7.50;97.60
29813;DHT22;16707;48.106;11.548;2023-02-15T16:04:34;7.40;97.60
29813;DHT22;16707;48.106;11.548;2023-02-15T16:07:23;7.30;98.00
29813;DHT22;16707;48.106;11.548;2023-02-15T16:09:55;7.10;98.70
29813;DHT22;16707;48.106;11.548;2023-02-15T16:12:23;7.00;99.30
29813;DHT22;16707;48.106;11.548;2023-02-15T16:14:51;7.00;99.50
29813;DHT22;16707;48.106;11.548;2023-02-15T16:17:23;6.80;99.60
29813;DHT22;16707;48.106;11.548;2023-02-15T16:19:56;6.60;99.90
29813;DHT22;16707;48.106;11.548;2023-02-15T16:22:29;6.50;99.90
29813;DHT22;16707;48.106;11.548;2023-02-15T16:25:28;6.40;99.90
29813;DHT22;16707;48.106;11.548;2023-02-15T16:28:06;6.20;99.90